This is the latest recevied weather packets stored in our database for station/object N9VPV. If no packets are shown the sender has not sent any weather packets the latest 10 day(s).
| Time | Temp. | Humidity | Pressure | Rain* | Wind** | Luminosity | Snow |
|---|---|---|---|---|---|---|---|
| 1777646936 | 8.33° C | 63% | 1016.9 hPa | 0 mm | - | 0 W/m² | - |
| 1777646035 | 8.33° C | 67% | 1017.1 hPa | 0 mm | - | 0 W/m² | - |
| 1777645132 | 8.33° C | 66% | 1017.1 hPa | 0 mm | - | 0 W/m² | - |
| 1777644636 | 7.78° C | 70% | 1017 hPa | 0 mm | - | 0 W/m² | - |
| 1777643321 | 7.22° C | 70% | 1017 hPa | 0 mm | - | 0 W/m² | - |
| 1777642419 | 6.11° C | 72% | 1017.1 hPa | 0 mm | - | 0 W/m² | - |
| 1777641519 | 5.56° C | 74% | 1017 hPa | 0 mm | - | 0 W/m² | - |
| 1777640621 | 5° C | 77% | 1017 hPa | 0 mm | - | 0 W/m² | - |
| 1777639689 | 3.89° C | 82% | 1017 hPa | 0 mm | - | 0 W/m² | - |
| 1777638788 | 3.33° C | 84% | 1017 hPa | 0 mm | - | 0 W/m² | - |
| 1777637885 | 2.22° C | 86% | 1016.9 hPa | 0 mm | - | 0 W/m² | - |
| 1777636979 | 1.67° C | 86% | 1016.7 hPa | 0 mm | - | 0 W/m² | - |
| 1777636059 | 1.11° C | 86% | 1016.4 hPa | 0 mm | - | 0 W/m² | - |
| 1777635146 | 1.11° C | 86% | 1016.4 hPa | 0 mm | - | 0 W/m² | - |
| 1777634245 | 1.11° C | 85% | 1015.9 hPa | 0 mm | - | 0 W/m² | - |
| 1777633343 | 1.11° C | 85% | 1015.8 hPa | 0 mm | - | 0 W/m² | - |
| 1777632439 | 1.67° C | 84% | 1015.8 hPa | 0 mm | - | 0 W/m² | - |
| 1777631535 | 1.67° C | 83% | 1015.8 hPa | 0 mm | - | 0 W/m² | - |
| 1777630636 | 2.22° C | 82% | 1015.8 hPa | 0 mm | - | 0 W/m² | - |
| 1777629733 | 2.22° C | 81% | 1015.8 hPa | 0 mm | - | 0 W/m² | - |
| 1777628828 | 2.78° C | 81% | 1015.8 hPa | 0 mm | - | 0 W/m² | - |
| 1777627921 | 2.78° C | 80% | 1015.8 hPa | 0 mm | - | 0 W/m² | - |
| 1777627006 | 3.33° C | 79% | 1015.7 hPa | 0 mm | - | 0 W/m² | - |
| 1777626089 | 3.33° C | 78% | 1015.7 hPa | 0 mm | - | 0 W/m² | - |
| 1777625181 | 3.89° C | 77% | 1015.6 hPa | 0 mm | - | 0 W/m² | - |
* Rain latest hour (hover to see other rain measurements)
** Current wind speed in m/s (hover to see current wind gust speed)